• Join FlightAware (Why Join?)
  • Login
  • US Flag 
06:55PM EDT


 

Airport Tracker/Info


-or-


 

Live Flight TrackerFlight Track Log ✈ AWI3673 ✈ 15-May-2013 ✈ KORF - KCLT

Flight Track Log - Related Links

Times and Time Zones

All times are in EDT time to prevent confusion due to time zone crossing. See the AWI3673 flight status page for this flight to view local times or setup timezone preferences in your user account.

Time Position Orientation Groundspeed Altitude Reporting Facility
EDT Latitude Longitude Course Direction KTS MPH feet Rate Location/Type
05:36PM 36.8825 -76.2178 253° West 148 170 700  Level Washington Center
05:36PM 36.8617 -76.2331 210° Southwest 152 175 2,000 1,680 Climbing Washington Center
05:37PM 36.8258 -76.2847 229° Southwest 236 272 3,500 1,800 Climbing Washington Center
05:38PM 36.8135 -76.5193 258° West  Level FlightAware Approximate
05:38PM 36.8150 -76.3572 259° West 250 288 5,400  Level Washington Center
05:39PM 36.7951 -76.6294 258° West  Level FlightAware Approximate
05:39PM 36.7997 -76.4428 257° West 262 302 7,500  Level Washington Center
05:40PM 36.7738 -76.7385 253° West  Level FlightAware Approximate
05:40PM 36.7867 -76.5308 260° West 262 302 9,500  Level Washington Center
05:41PM 36.7469 -76.8458 253° West  Level FlightAware Approximate
05:41PM 36.7733 -76.6267 260° West 267 307 11,500  Level Washington Center
05:42PM 36.7578 -76.7197 258° West 280 322 13,100 1,680 Climbing Washington Center
05:43PM 36.7422 -76.8231 259° West 286 329 14,900 1,680 Climbing Washington Center
05:44PM 36.7267 -76.9292 260° West 305 351 16,500 1,260 Climbing Washington Center
05:45PM 36.7003 -77.0400 253° West 316 364 17,600 1,320 Climbing Washington Center
05:46PM 36.6531 -77.1428 240° Southwest 329 379 19,200 1,380 Climbing Washington Center
05:47PM 36.6058 -77.2428 240° Southwest 334 384 20,400 1,140 Climbing Washington Center
05:48PM 36.5583 -77.3478 241° Southwest 345 397 21,500 780 Climbing Washington Center
05:49PM 36.5089 -77.4550 240° Southwest 356 410 22,000 240 Climbing Washington Center
05:50PM 36.4547 -77.5675 239° Southwest 362 417 22,000  Level Washington Center
05:51PM 36.4094 -77.6644 240° Southwest 368 423 22,000  Level Washington Center
05:52PM 36.3572 -77.7764 240° Southwest 374 430 22,000  Level Washington Center
05:53PM 36.3053 -77.8886 240° Southwest 374 430 22,000  Level Washington Center
05:54PM 36.2528 -78.0003 240° Southwest 374 430 22,000  Level Washington Center
05:55PM 36.2006 -78.1119 240° Southwest 374 430 22,000  Level Washington Center
05:56PM 36.1458 -78.2258 239° Southwest 374 430 22,000  Level Washington Center
05:57PM 36.0911 -78.3372 239° Southwest 374 430 22,000  Level Washington Center
05:58PM 36.0386 -78.4483 240° Southwest 374 430 22,000  Level Washington Center
05:59PM 35.9836 -78.5619 239° Southwest 374 430 22,000  Level Washington Center
06:00PM 35.9286 -78.6753 239° Southwest 374 430 22,000  Level Washington Center
06:01PM 35.8775 -78.7886 241° Southwest 374 430 22,000  Level Washington Center
06:02PM 35.8636 -78.9161 262° West 374 430 22,000  Level Washington Center
06:03PM 35.8539 -79.0467 265° West 374 430 22,000 -840 Level Washington Center
06:05PM 35.8356 -79.3028 265° West 393 452 19,600 -1,320 Descending Atlanta Center
06:06PM 35.8256 -79.4236 264° West 387 445 18,200 -1,320 Descending Atlanta Center
06:07PM 35.8175 -79.5444 265° West 375 432 17,000 -600 Descending Atlanta Center
06:08PM 35.8097 -79.6781 266° West 361 415 17,000  Level Atlanta Center
06:09PM 35.8117 -79.7881 271° West 355 409 17,000 -60 Level Atlanta Center
06:10PM 35.8108 -79.8906 269° West 335 386 16,900 -660 Descending Atlanta Center
06:11PM 35.8247 -79.9972 279° West 322 371 15,700 -1,200 Descending Atlanta Center
06:12PM 35.8344 -80.0992 277° West 311 358 14,600 -1,320 Descending Atlanta Center
06:13PM 35.8289 -80.1917 266° West 279 321 13,400 -900 Descending Atlanta Center
06:14PM 35.8194 -80.2894 263° West 280 322 12,900 -420 Descending Atlanta Center
06:15PM 35.8128 -80.4153 266° West 303 349 12,500 -660 Descending Atlanta Center
06:16PM 35.7544 -80.4844 224° Southwest 296 341 11,500 -1,080 Descending Atlanta Center
06:17PM 35.6886 -80.5206 204° Southwest 276 318 10,500 -1,260 Descending Atlanta Center
06:18PM 35.6128 -80.5622 204° Southwest 288 331 9,200 -1,320 Descending Atlanta Center
06:19PM 35.5386 -80.5983 202° Southwest 293 337 7,900 -1,320 Descending Atlanta Center
06:20PM 35.4667 -80.6372 204° Southwest 288 331 6,600 -1,020 Descending Atlanta Center
06:21PM 35.4033 -80.6831 211° Southwest 281 323 5,900 -960 Descending Atlanta Center
06:22PM 35.3631 -80.7381 228° Southwest 242 278 4,700 -1,080 Descending Atlanta Center
06:23PM 35.3228 -80.7933 228° Southwest 158 182 3,600 -900 Descending Atlanta Center